Time;durP1;ratioP1;P1;durP2;ratioP2;P2;SDS_P1;SDS_P2;PMS_P1;PMS_P2;Temp;Humidity;BMP_temperature;BMP_pressure;BME280_temperature;BME280_humidity;BME280_pressure;Samples;Min_cycle;Max_cycle;Signal;HPM_P1;HPM_P2
2021/03/27 00:01:22;;;;;;;15.23;9.30;;;;;;;4.95;68.13;98843.56;5030730;28;20035;-69
2021/03/27 00:03:55;;;;;;;14.40;8.93;;;;;;;4.83;68.81;98840.94;5032738;28;20062;-69
2021/03/27 00:06:29;;;;;;;16.53;9.20;;;;;;;4.73;69.13;98842.56;5034626;28;20041;-69
2021/03/27 00:08:59;;;;;;;15.15;9.80;;;;;;;4.63;69.20;98835.69;5032115;28;20036;-69
2021/03/27 00:11:54;;;;;;;13.33;9.33;;;;;;;4.62;69.43;98843.31;5031901;28;20087;-69
2021/03/27 00:14:37;;;;;;;15.17;8.33;;;;;;;4.57;69.77;98839.06;5031465;28;20355;-70
2021/03/27 00:17:08;;;;;;;14.13;8.30;;;;;;;4.60;69.79;98834.00;5030483;28;20022;-69
2021/03/27 00:19:42;;;;;;;14.30;9.40;;;;;;;4.56;70.20;98824.66;5034077;28;20397;-69
2021/03/27 00:22:17;;;;;;;23.77;9.80;;;;;;;4.63;69.68;98829.78;5030343;28;20025;-69
2021/03/27 00:24:54;;;;;;;17.20;9.37;;;;;;;4.63;69.40;98828.09;5027273;28;20021;-69
2021/03/27 00:27:28;;;;;;;17.43;9.67;;;;;;;4.50;69.79;98824.59;5029222;28;20029;-69
2021/03/27 00:30:09;;;;;;;16.50;8.87;;;;;;;4.39;70.22;98825.34;5034714;28;20040;-69
2021/03/27 00:32:40;;;;;;;17.43;8.73;;;;;;;4.45;70.52;98826.28;5028672;28;20261;-69
2021/03/27 00:35:11;;;;;;;15.47;9.13;;;;;;;4.44;70.15;98826.25;5032894;28;20029;-70
2021/03/27 00:37:40;;;;;;;20.10;9.10;;;;;;;4.43;70.31;98812.72;5036051;28;20065;-70
2021/03/27 00:40:14;;;;;;;17.43;8.80;;;;;;;4.47;70.31;98821.19;5031061;28;20367;-70
2021/03/27 00:42:45;;;;;;;14.30;9.23;;;;;;;4.48;70.02;98820.38;5031228;28;20112;-69
2021/03/27 00:45:13;;;;;;;12.77;7.90;;;;;;;4.42;70.36;98821.16;5033261;28;20326;-69
2021/03/27 00:47:42;;;;;;;16.93;8.80;;;;;;;4.32;70.31;98824.47;5031610;28;20087;-70
2021/03/27 00:50:37;;;;;;;14.10;8.67;;;;;;;4.25;70.56;98821.84;5030624;28;20187;-69
2021/03/27 00:53:20;;;;;;;15.57;8.30;;;;;;;4.17;71.61;98823.47;5034351;28;20279;-70
2021/03/27 00:55:48;;;;;;;12.33;7.00;;;;;;;4.13;71.61;98823.44;5034475;28;20029;-71
2021/03/27 00:58:26;;;;;;;12.60;7.07;;;;;;;4.16;71.81;98824.31;5054776;28;20351;-69
2021/03/27 01:00:57;;;;;;;11.40;6.87;;;;;;;4.13;71.81;98825.13;5031355;28;20052;-69
2021/03/27 01:03:29;;;;;;;13.83;7.30;;;;;;;4.14;71.45;98820.06;5033657;28;20035;-70
2021/03/27 01:05:55;;;;;;;12.33;7.17;;;;;;;4.14;71.42;98816.69;5037898;28;20060;-70
2021/03/27 01:08:24;;;;;;;12.53;8.40;;;;;;;4.23;71.37;98809.16;5035869;28;20085;-68
2021/03/27 01:11:17;;;;;;;13.77;6.73;;;;;;;4.26;70.57;98808.31;5030003;28;20125;-68
2021/03/27 01:13:50;;;;;;;16.13;7.23;;;;;;;4.22;71.13;98814.22;5030274;28;20034;-70
2021/03/27 01:16:22;;;;;;;13.77;7.20;;;;;;;4.18;71.24;98805.72;5032500;28;20120;-68
2021/03/27 01:19:00;;;;;;;9.63;7.07;;;;;;;4.12;71.32;98800.56;5030225;28;20041;-68
2021/03/27 01:21:32;;;;;;;13.23;6.50;;;;;;;4.09;70.94;98801.41;5033655;28;20095;-68
2021/03/27 01:24:01;;;;;;;8.23;6.20;;;;;;;4.01;71.56;98794.56;5031549;28;20110;-68
2021/03/27 01:26:35;;;;;;;11.40;7.13;;;;;;;3.92;71.61;98799.53;5028889;28;20325;-70
2021/03/27 01:29:07;;;;;;;10.63;6.90;;;;;;;3.84;72.19;98791.88;5028225;28;20043;-70
2021/03/27 01:31:42;;;;;;;13.60;7.27;;;;;;;3.79;72.53;98785.88;5027509;28;20049;-70
2021/03/27 01:34:18;;;;;;;12.75;6.75;;;;;;;3.79;72.22;98793.50;5032907;28;20052;-70
2021/03/27 01:36:56;;;;;;;9.13;6.30;;;;;;;3.81;72.12;98788.47;5032469;28;20033;-68
2021/03/27 01:39:28;;;;;;;12.23;7.40;;;;;;;3.84;71.81;98789.34;5032881;28;20025;-69
2021/03/27 01:42:09;;;;;;;12.27;6.97;;;;;;;3.81;71.75;98788.47;5029863;28;20373;-69
2021/03/27 01:44:46;;;;;;;9.43;6.07;;;;;;;3.73;72.34;98778.25;5027019;28;20064;-70
2021/03/27 01:47:27;;;;;;;15.70;8.00;;;;;;;3.79;72.25;98792.66;5029108;28;20033;-69
2021/03/27 01:50:04;;;;;;;9.37;6.37;;;;;;;3.68;71.74;98793.41;5032877;28;20398;-69
2021/03/27 01:52:54;;;;;;;11.07;6.13;;;;;;;3.57;72.39;98789.88;5034028;28;20052;-68
2021/03/27 01:55:39;;;;;;;10.13;6.97;;;;;;;3.51;72.62;98791.50;5028385;28;20083;-69
2021/03/27 01:58:28;;;;;;;9.83;6.70;;;;;;;3.49;72.60;98795.69;5037833;28;20556;-70
2021/03/27 02:01:19;;;;;;;12.67;6.17;;;;;;;3.42;72.87;98797.31;5040862;28;20025;-68
2021/03/27 02:03:46;;;;;;;12.90;6.60;;;;;;;3.33;72.83;98799.72;5039185;28;20482;-70
2021/03/27 02:06:23;;;;;;;8.83;5.87;;;;;;;3.27;73.33;98792.03;5041086;28;20033;-69
2021/03/27 02:09:00;;;;;;;10.13;6.13;;;;;;;3.27;73.20;98793.75;5043551;28;20124;-69
2021/03/27 02:11:44;;;;;;;10.47;6.50;;;;;;;3.26;73.66;98797.97;5041278;28;20067;-68
2021/03/27 02:14:25;;;;;;;11.03;6.03;;;;;;;3.28;73.54;98788.69;5055991;28;20347;-69
2021/03/27 02:17:13;;;;;;;10.17;5.97;;;;;;;3.22;73.80;98783.56;5037657;28;20075;-69
2021/03/27 02:19:39;;;;;;;8.63;5.93;;;;;;;3.27;73.96;98786.16;5041366;28;20112;-70
2021/03/27 02:22:46;;;;;;;9.70;5.83;;;;;;;3.32;73.51;98784.50;5035778;28;20097;-70
2021/03/27 02:25:14;;;;;;;9.27;6.07;;;;;;;3.22;73.83;98791.16;5006767;28;20095;-69
2021/03/27 02:27:54;;;;;;;9.53;5.67;;;;;;;3.31;73.24;98787.91;5002704;28;20373;-69
2021/03/27 02:30:32;;;;;;;9.43;6.03;;;;;;;3.26;73.99;98789.50;5009388;28;20046;-69
2021/03/27 02:33:15;;;;;;;11.90;6.40;;;;;;;3.20;73.81;98782.69;5005935;28;20042;-69
2021/03/27 02:35:52;;;;;;;10.83;6.43;;;;;;;3.18;74.14;98789.44;5009976;28;20157;-69
2021/03/27 02:38:35;;;;;;;8.53;5.53;;;;;;;3.22;74.28;98793.69;5017613;28;20115;-68
2021/03/27 02:41:26;;;;;;;10.00;5.80;;;;;;;3.18;74.10;98795.31;5009928;28;20109;-69
2021/03/27 02:44:00;;;;;;;10.23;5.83;;;;;;;3.13;74.83;98793.56;4999162;28;20037;-69
2021/03/27 02:46:46;;;;;;;10.40;5.67;;;;;;;3.18;74.26;98794.50;4997137;28;20046;-69
2021/03/27 02:49:54;;;;;;;10.67;6.07;;;;;;;3.19;74.30;98786.88;4998969;28;20065;-69
2021/03/27 02:52:57;;;;;;;10.83;5.43;;;;;;;3.25;74.55;98797.94;5018532;28;20128;-69
2021/03/27 02:55:34;;;;;;;8.93;5.90;;;;;;;3.45;73.45;98793.97;5014808;28;20042;-69
2021/03/27 02:58:42;;;;;;;8.57;5.00;;;;;;;3.54;72.48;98789.84;5013689;28;20033;-69
2021/03/27 03:01:28;;;;;;;7.97;5.20;;;;;;;3.58;73.16;98790.72;4965894;28;20391;-69
2021/03/27 03:04:24;;;;;;;8.60;5.77;;;;;;;3.60;72.21;98797.53;4991783;28;20079;-69
2021/03/27 03:06:56;;;;;;;10.25;5.53;;;;;;;3.59;72.53;98794.97;4995854;28;20061;-69
2021/03/27 03:09:36;;;;;;;8.97;5.53;;;;;;;3.50;72.90;98798.25;4997050;28;20125;-69
2021/03/27 03:12:15;;;;;;;12.03;5.93;;;;;;;3.47;72.95;98795.69;4992298;28;20087;-69
2021/03/27 03:14:54;;;;;;;7.07;6.10;;;;;;;3.46;72.58;98798.19;4974872;28;20026;-69
2021/03/27 03:17:29;;;;;;;9.30;5.90;;;;;;;3.41;72.79;98803.22;4981492;28;20076;-69
2021/03/27 03:20:18;;;;;;;8.10;5.47;;;;;;;3.40;72.79;98800.66;4993045;28;20037;-68
2021/03/27 03:23:04;;;;;;;10.47;5.40;;;;;;;3.37;72.83;98801.47;4967589;28;20093;-68
2021/03/27 03:25:31;;;;;;;7.70;5.13;;;;;;;3.37;72.75;98804.00;4995046;28;20092;-69
2021/03/27 03:28:09;;;;;;;9.93;5.23;;;;;;;3.51;72.73;98802.50;4991664;28;20030;-68
2021/03/27 03:30:40;;;;;;;8.87;5.30;;;;;;;3.47;72.52;98799.91;4993258;28;20420;-69
2021/03/27 03:33:17;;;;;;;10.70;5.60;;;;;;;3.49;72.77;98806.69;4991261;28;20089;-69
2021/03/27 03:36:07;;;;;;;9.77;4.87;;;;;;;3.40;72.60;98801.50;4993128;28;20038;-69
2021/03/27 03:39:03;;;;;;;8.30;5.37;;;;;;;3.44;72.53;98805.78;5019024;28;20091;-69
2021/03/27 03:41:44;;;;;;;8.23;5.57;;;;;;;3.48;72.12;98801.63;5030888;28;20053;-70
2021/03/27 03:44:43;;;;;;;7.03;4.80;;;;;;;3.49;71.53;98798.22;5035187;28;20029;-68
2021/03/27 03:47:14;;;;;;;6.70;4.73;;;;;;;3.35;72.30;98800.63;5035867;28;20092;-68
2021/03/27 03:49:43;;;;;;;7.63;4.93;;;;;;;3.31;72.53;98798.03;5032849;28;20025;-70
2021/03/27 03:52:19;;;;;;;7.73;5.00;;;;;;;3.28;72.81;98801.34;5034308;28;20042;-70
2021/03/27 03:55:03;;;;;;;8.93;4.50;;;;;;;3.23;72.60;98797.91;5032007;28;20029;-69
2021/03/27 03:57:31;;;;;;;8.07;4.20;;;;;;;3.29;72.58;98798.00;5035319;28;20130;-69
2021/03/27 04:00:04;;;;;;;6.97;4.67;;;;;;;3.28;72.96;98798.81;5032855;28;20030;-69
2021/03/27 04:02:41;;;;;;;9.13;5.20;;;;;;;3.22;72.63;98792.00;5035752;28;20041;-70
2021/03/27 04:05:18;;;;;;;5.97;4.60;;;;;;;3.25;72.88;98790.34;5033155;28;20371;-69
2021/03/27 04:07:57;;;;;;;9.37;5.17;;;;;;;3.28;72.67;98793.75;5029020;28;20272;-69
2021/03/27 04:10:25;;;;;;;10.37;5.57;;;;;;;3.16;72.24;98791.94;5031928;28;20379;-70
2021/03/27 04:12:59;;;;;;;7.00;4.30;;;;;;;3.11;72.77;98790.16;5032052;28;20038;-68
2021/03/27 04:15:42;;;;;;;7.43;5.50;;;;;;;3.15;73.62;98799.50;5037395;28;20319;-70
2021/03/27 04:18:42;;;;;;;5.80;4.30;;;;;;;3.16;72.82;98791.06;5031444;28;20034;-69
2021/03/27 04:21:16;;;;;;;8.43;5.00;;;;;;;3.21;72.61;98797.06;5034268;28;20037;-69
2021/03/27 04:23:44;;;;;;;6.28;4.45;;;;;;;3.11;72.92;98798.59;5033265;28;20387;-68
2021/03/27 04:26:36;;;;;;;7.57;4.90;;;;;;;3.12;73.55;98794.41;5034599;28;20043;-68
2021/03/27 04:29:30;;;;;;;9.37;5.60;;;;;;;3.10;72.89;98796.91;5051307;28;20040;-68
2021/03/27 04:32:24;;;;;;;7.43;5.00;;;;;;;3.04;72.77;98796.84;5030744;28;20120;-68
2021/03/27 04:34:59;;;;;;;6.70;4.83;;;;;;;2.95;73.12;98794.19;5036268;28;20037;-68
2021/03/27 04:37:41;;;;;;;6.97;5.65;;;;;;;2.87;74.29;98798.28;5029030;28;20029;-70
2021/03/27 04:40:21;;;;;;;8.83;5.53;;;;;;;2.83;74.22;98801.59;5034623;28;20041;-69
2021/03/27 04:43:14;;;;;;;6.13;5.10;;;;;;;2.93;74.48;98802.59;5032286;28;20267;-69
2021/03/27 04:45:45;;;;;;;7.57;5.23;;;;;;;2.86;74.35;98798.25;5031227;28;20046;-69
2021/03/27 04:48:29;;;;;;;12.00;5.77;;;;;;;3.02;73.77;98803.56;5032666;28;20044;-69
2021/03/27 04:50:57;;;;;;;9.17;5.90;;;;;;;3.03;73.31;98799.34;5027778;28;20057;-69
2021/03/27 04:53:37;;;;;;;9.10;6.37;;;;;;;3.12;73.11;98800.31;5034275;28;20121;-69
2021/03/27 04:56:20;;;;;;;9.83;5.53;;;;;;;3.14;73.32;98802.88;5030959;28;20060;-69
2021/03/27 04:58:57;;;;;;;7.63;5.30;;;;;;;3.13;72.78;98801.19;5033375;28;20056;-70
2021/03/27 05:01:22;;;;;;;9.03;5.80;;;;;;;3.10;73.49;98808.72;5031619;28;20022;-68
2021/03/27 05:03:56;;;;;;;9.37;5.80;;;;;;;3.18;72.90;98805.44;5031665;28;20075;-69
2021/03/27 05:06:43;;;;;;;8.97;5.57;;;;;;;3.15;72.87;98804.56;5032856;28;20342;-70
2021/03/27 05:09:44;;;;;;;5.93;4.60;;;;;;;3.13;73.42;98811.31;5037328;28;20033;-69
2021/03/27 05:12:15;;;;;;;9.23;5.07;;;;;;;3.14;72.85;98813.84;5034990;28;20033;-69
2021/03/27 05:15:17;;;;;;;9.20;5.73;;;;;;;3.14;72.62;98818.09;5037441;28;20052;-70
2021/03/27 05:17:42;;;;;;;8.63;5.77;;;;;;;3.08;72.99;98821.38;4968189;28;20104;-69
2021/03/27 05:20:17;;;;;;;10.07;5.60;;;;;;;3.15;73.62;98824.81;4969557;28;20082;-70
2021/03/27 05:22:42;;;;;;;8.80;5.23;;;;;;;3.10;73.20;98824.75;4970954;28;20088;-69
2021/03/27 05:25:29;;;;;;;9.63;4.80;;;;;;;3.21;73.29;98824.91;4969195;28;20050;-69
2021/03/27 05:28:07;;;;;;;7.03;4.83;;;;;;;3.28;72.69;98826.69;4968248;28;20183;-70
2021/03/27 05:30:32;;;;;;;9.57;6.20;;;;;;;3.26;73.27;98820.78;4968709;28;20039;-70
2021/03/27 05:33:22;;;;;;;9.87;5.17;;;;;;;3.37;72.58;98824.28;4965260;28;20035;-70
2021/03/27 05:35:54;;;;;;;7.57;5.17;;;;;;;3.38;72.54;98823.44;4969959;28;20388;-70
2021/03/27 05:38:31;;;;;;;8.67;5.60;;;;;;;3.43;72.60;98831.97;4966758;28;20050;-71
2021/03/27 05:41:21;;;;;;;9.37;5.30;;;;;;;3.48;72.43;98827.78;4967347;28;20413;-69
2021/03/27 05:44:10;;;;;;;8.20;4.80;;;;;;;3.58;72.28;98833.81;4965137;28;20158;-70
2021/03/27 05:47:13;;;;;;;6.37;4.03;;;;;;;3.66;72.23;98835.63;4979637;28;20444;-69
2021/03/27 05:49:54;;;;;;;12.57;6.70;;;;;;;3.77;71.61;98835.75;4973610;28;20269;-70
2021/03/27 05:52:25;;;;;;;8.77;4.80;;;;;;;3.90;71.08;98840.13;4986317;28;20105;-69
2021/03/27 05:55:12;;;;;;;11.77;5.30;;;;;;;4.07;70.60;98827.63;5014817;28;20053;-69
2021/03/27 05:57:49;;;;;;;6.90;4.73;;;;;;;4.16;70.32;98827.69;5030534;28;20037;-70
2021/03/27 06:00:45;;;;;;;6.13;4.13;;;;;;;4.32;70.63;98829.53;5029000;28;20048;-70
2021/03/27 06:03:29;;;;;;;7.43;4.82;;;;;;;4.46;69.57;98827.09;5034630;28;20104;-69
2021/03/27 06:06:06;;;;;;;8.03;5.70;;;;;;;4.51;69.32;98828.00;5031342;28;20030;-70
2021/03/27 06:09:02;;;;;;;9.83;6.03;;;;;;;4.65;68.65;98833.19;5032738;28;20022;-69
2021/03/27 06:11:39;;;;;;;7.00;5.45;;;;;;;4.65;68.25;98830.66;5030665;28;20049;-70
2021/03/27 06:14:11;;;;;;;11.90;6.10;;;;;;;4.80;68.80;98841.75;5030149;28;20026;-68
2021/03/27 06:16:56;;;;;;;11.43;6.10;;;;;;;5.05;68.04;98835.16;5032937;28;20074;-69
2021/03/27 06:19:53;;;;;;;9.52;5.35;;;;;;;5.17;67.46;98837.78;5028027;28;20085;-68
2021/03/27 06:22:39;;;;;;;5.83;4.30;;;;;;;5.35;66.78;98832.78;4988451;28;20033;-70
2021/03/27 06:25:23;;;;;;;5.40;4.03;;;;;;;5.55;66.18;98839.66;4981064;28;20073;-68
2021/03/27 06:28:10;;;;;;;6.33;5.10;;;;;;;5.73;65.33;98842.28;5000974;28;20072;-68
2021/03/27 06:30:41;;;;;;;10.47;4.63;;;;;;;5.82;64.92;98847.38;5011166;28;20053;-68
2021/03/27 06:33:19;;;;;;;6.50;4.70;;;;;;;6.08;63.94;98847.47;5005306;28;20376;-68
2021/03/27 06:36:03;;;;;;;9.03;5.20;;;;;;;6.34;63.57;98849.25;5001728;28;20033;-66
2021/03/27 06:39:05;;;;;;;8.47;5.93;;;;;;;6.61;63.05;98852.66;5001233;28;20400;-70
2021/03/27 06:41:49;;;;;;;8.60;5.47;;;;;;;6.86;61.83;98851.81;5008563;28;20054;-69
2021/03/27 06:44:37;;;;;;;12.33;7.03;;;;;;;7.04;61.41;98844.16;5010486;28;20026;-69
2021/03/27 06:47:08;;;;;;;11.23;7.50;;;;;;;7.31;61.01;98848.31;5007991;28;20050;-71
2021/03/27 06:49:56;;;;;;;18.97;9.83;;;;;;;7.40;60.77;98845.75;5015095;28;20034;-70
2021/03/27 06:52:53;;;;;;;15.00;11.17;;;;;;;7.68;59.75;98849.06;5010119;28;20034;-69
2021/03/27 06:55:43;;;;;;;18.10;10.23;;;;;;;7.72;60.24;98848.19;4955431;29;20043;-70
2021/03/27 06:58:20;;;;;;;19.67;11.10;;;;;;;7.96;60.16;98844.69;4954720;28;20062;-70
2021/03/27 07:01:13;;;;;;;16.63;10.83;;;;;;;8.20;59.99;98847.09;4988820;28;20180;-69
2021/03/27 07:03:44;;;;;;;23.43;12.47;;;;;;;8.17;59.23;98845.41;4994591;28;20022;-71
2021/03/27 07:06:33;;;;;;;14.20;10.47;;;;;;;8.36;58.93;98850.44;4995725;28;20042;-69
2021/03/27 07:09:02;;;;;;;19.23;10.77;;;;;;;8.35;58.67;98851.28;4993105;28;20118;-69
2021/03/27 07:12:04;;;;;;;18.00;11.27;;;;;;;8.62;58.06;98851.06;4991655;28;20177;-68
2021/03/27 07:15:06;;;;;;;17.00;11.63;;;;;;;8.82;58.14;98845.81;4990490;28;20034;-72
2021/03/27 07:17:37;;;;;;;16.60;11.10;;;;;;;9.08;57.30;98849.00;4980492;28;20261;-67
2021/03/27 07:20:36;;;;;;;21.43;11.17;;;;;;;9.24;55.93;98849.69;4992366;28;20101;-71
2021/03/27 07:23:27;;;;;;;17.13;10.60;;;;;;;9.50;56.51;98848.56;4991929;28;20069;-71
2021/03/27 07:26:25;;;;;;;15.73;11.13;;;;;;;9.61;55.64;98846.72;4993801;28;20408;-74
2021/03/27 07:29:30;;;;;;;18.43;11.43;;;;;;;9.70;56.33;98844.91;4992072;28;20274;-71
2021/03/27 07:32:25;;;;;;;22.35;12.27;;;;;;;9.83;54.22;98847.28;5009718;28;20042;-71
2021/03/27 07:35:21;;;;;;;19.73;11.80;;;;;;;10.01;54.74;98846.22;5028589;28;20018;-68
2021/03/27 07:37:46;;;;;;;;;;;;;;;10.00;54.71;98844.50;5027926;28;20124;-70
2021/03/27 07:40:21;;;;;;;18.33;11.17;;;;;;;10.20;54.69;98851.94;5028358;28;19940;-69
2021/03/27 07:43:13;;;;;;;16.50;10.95;;;;;;;10.24;53.75;98846.75;5032190;28;20058;-69
2021/03/27 07:45:57;;;;;;;15.90;10.77;;;;;;;10.16;53.75;98855.44;5032567;28;20049;-69
2021/03/27 07:48:51;;;;;;;16.05;11.43;;;;;;;10.30;53.18;98858.66;5031123;28;20050;-70
2021/03/27 07:51:47;;;;;;;19.20;12.70;;;;;;;10.50;53.26;98854.06;5029619;28;20049;-68
2021/03/27 07:54:50;;;;;;;19.93;12.20;;;;;;;10.53;53.22;98861.72;5032230;28;20029;-68
2021/03/27 07:57:43;;;;;;;18.87;12.00;;;;;;;10.58;52.75;98859.94;5035566;28;20033;-68
2021/03/27 08:00:27;;;;;;;24.03;11.93;;;;;;;10.81;52.35;98859.56;5033468;28;20037;-69
2021/03/27 08:03:27;;;;;;;21.80;11.47;;;;;;;10.95;51.52;98858.47;5033548;28;20386;-67
2021/03/27 08:06:11;;;;;;;23.30;12.67;;;;;;;11.05;51.87;98856.59;5032413;28;20132;-72
2021/03/27 08:08:55;;;;;;;22.57;14.87;;;;;;;11.08;51.56;98858.25;5033600;28;20033;-70
2021/03/27 08:11:57;;;;;;;20.20;13.77;;;;;;;11.17;51.43;98860.66;5028896;28;20033;-72
2021/03/27 08:14:51;;;;;;;19.37;13.03;;;;;;;11.33;52.06;98868.03;5031612;28;20028;-71
2021/03/27 08:17:22;;;;;;;25.17;14.00;;;;;;;11.47;51.11;98870.38;5032051;28;20036;-71
2021/03/27 08:20:04;;;;;;;21.63;13.33;;;;;;;11.63;50.36;98864.06;5029072;28;20037;-71
2021/03/27 08:22:58;;;;;;;19.90;14.07;;;;;;;11.66;50.10;98869.16;5030875;28;20371;-70
2021/03/27 08:25:54;;;;;;;16.07;11.97;;;;;;;11.72;49.52;98863.06;5030977;28;20025;-69
2021/03/27 08:28:19;;;;;;;21.30;11.52;;;;;;;11.57;48.68;98860.78;5032025;28;20037;-70
2021/03/27 08:31:03;;;;;;;14.73;10.65;;;;;;;12.06;48.47;98869.22;5029109;28;20065;-69
2021/03/27 08:34:04;;;;;;;15.75;10.88;;;;;;;12.27;47.23;98866.19;5030157;28;20091;-70
2021/03/27 08:37:14;;;;;;;19.48;11.63;;;;;;;12.51;46.77;98863.94;4957793;28;20066;-69
2021/03/27 08:40:05;;;;;;;18.25;10.80;;;;;;;12.58;46.56;98871.47;4884657;29;20052;-70
2021/03/27 08:43:17;;;;;;;12.20;10.07;;;;;;;12.66;45.45;98869.56;4844466;29;20045;-69
2021/03/27 08:46:34;;;;;;;14.95;9.13;;;;;;;12.93;44.67;98875.78;4846933;29;20076;-69
2021/03/27 08:49:00;;;;;;;13.55;9.80;;;;;;;13.04;44.39;98865.22;4825531;29;20049;-69
2021/03/27 08:51:56;;;;;;;16.17;10.27;;;;;;;13.27;45.47;98868.94;4844987;29;20038;-70
2021/03/27 08:54:59;;;;;;;15.35;11.05;;;;;;;13.35;45.34;98868.75;4843151;29;20042;-70
2021/03/27 08:57:47;;;;;;;16.63;11.60;;;;;;;13.30;44.89;98873.16;4845915;29;20046;-70
2021/03/27 09:00:54;;;;;;;11.80;10.25;;;;;;;13.34;45.19;98890.22;4836138;29;20038;-68
2021/03/27 09:03:50;;;;;;;16.20;11.20;;;;;;;13.58;44.30;98888.72;4848433;29;20433;-68
2021/03/27 09:06:47;;;;;;;17.63;12.38;;;;;;;13.53;44.65;98898.31;4847371;29;20049;-70
2021/03/27 09:09:39;;;;;;;16.63;11.57;;;;;;;13.27;44.95;98905.00;4851492;29;20045;-69
2021/03/27 09:12:23;;;;;;;18.75;10.85;;;;;;;13.55;44.35;98906.84;4846859;29;20105;-68
2021/03/27 09:15:13;;;;;;;14.25;10.68;;;;;;;13.64;44.49;98915.19;4900899;29;20442;-73
2021/03/27 09:18:09;;;;;;;19.08;11.55;;;;;;;13.71;44.22;98910.69;4966113;29;20042;-69
2021/03/27 09:20:41;;;;;;;;;;;;;;;13.82;43.78;98918.16;5030566;28;20346;-67
2021/03/27 09:23:44;;;;;;;18.52;11.45;;;;;;;13.89;43.54;98924.81;5035040;28;19950;-69
2021/03/27 09:26:30;;;;;;;16.63;11.30;;;;;;;13.80;43.22;98930.22;5042144;28;20065;-68
2021/03/27 09:29:11;;;;;;;14.88;11.27;;;;;;;13.96;43.24;98939.25;5033401;28;20030;-67
2021/03/27 09:31:49;;;;;;;14.30;11.40;;;;;;;14.05;43.11;98936.38;5032042;28;20021;-69
2021/03/27 09:34:53;;;;;;;17.58;12.73;;;;;;;14.25;42.40;98949.56;5033841;28;20021;-65
2021/03/27 09:37:38;;;;;;;17.30;12.85;;;;;;;13.99;43.73;98960.63;5016214;28;20417;-65
2021/03/27 09:40:29;;;;;;;21.38;11.77;;;;;;;14.16;42.55;98945.53;5028033;28;20422;-66
2021/03/27 09:43:16;;;;;;;21.75;13.05;;;;;;;14.41;42.54;98960.31;5030539;28;20337;-68
2021/03/27 09:46:06;;;;;;;16.55;11.38;;;;;;;14.41;42.33;98939.69;5023350;28;20045;-67
2021/03/27 09:49:02;;;;;;;18.13;13.13;;;;;;;14.71;42.96;98953.41;5032464;28;20099;-67
2021/03/27 09:51:37;;;;;;;19.73;13.25;;;;;;;14.63;43.19;98964.81;5031465;28;20036;-66
2021/03/27 09:54:44;;;;;;;20.15;12.52;;;;;;;14.68;42.78;98961.25;5028711;28;20382;-66
2021/03/27 09:57:31;;;;;;;21.50;12.57;;;;;;;14.78;41.81;98960.06;5029600;28;20018;-66
2021/03/27 10:00:03;;;;;;;19.13;12.68;;;;;;;14.90;42.29;98951.94;5032897;28;20108;-66
2021/03/27 10:03:11;;;;;;;21.40;12.05;;;;;;;15.08;41.56;98964.28;5025246;28;20064;-67
2021/03/27 10:05:52;;;;;;;17.05;12.23;;;;;;;15.27;42.59;98957.63;5029405;28;20026;-67
2021/03/27 10:08:31;;;;;;;18.25;12.38;;;;;;;15.34;41.48;98955.69;5030212;28;20040;-66
2021/03/27 10:11:13;;;;;;;17.10;12.57;;;;;;;15.39;42.47;98949.47;5033160;28;20048;-68
2021/03/27 10:13:41;;;;;;;16.92;12.02;;;;;;;15.62;40.73;98937.53;5027554;28;20112;-68
2021/03/27 10:16:28;;;;;;;24.10;12.23;;;;;;;15.71;41.56;98934.63;5030384;28;20372;-67
2021/03/27 10:19:18;;;;;;;20.27;14.48;;;;;;;15.61;41.26;98951.38;5032167;28;20022;-68
2021/03/27 10:21:59;;;;;;;16.45;11.13;;;;;;;15.75;41.38;98938.78;5032369;28;20022;-67
2021/03/27 10:24:25;;;;;;;20.20;13.35;;;;;;;15.82;41.48;98940.28;5033370;28;20033;-67
2021/03/27 10:27:16;;;;;;;20.83;12.48;;;;;;;16.02;41.92;98948.19;5034345;28;20272;-69
2021/03/27 10:30:04;;;;;;;5.57;4.22;;;;;;;16.88;39.91;98947.53;5030370;28;20029;-68
2021/03/27 10:32:30;;;;;;;4.85;3.60;;;;;;;16.98;39.68;98936.78;5034378;28;20029;-67
2021/03/27 10:35:01;;;;;;;4.00;3.38;;;;;;;17.14;39.55;98946.47;5031580;28;20279;-66
2021/03/27 10:37:26;;;;;;;7.63;3.47;;;;;;;17.16;39.62;98949.00;5028755;28;20353;-66
2021/03/27 10:40:13;;;;;;;5.68;3.72;;;;;;;17.09;40.72;98932.88;5030254;28;20021;-66
2021/03/27 10:42:57;;;;;;;4.00;3.20;;;;;;;17.10;40.74;98939.72;5033954;28;20017;-66
2021/03/27 10:46:00;;;;;;;5.20;3.90;;;;;;;17.32;40.94;98950.91;5030685;28;20045;-66
2021/03/27 10:48:41;;;;;;;5.25;4.15;;;;;;;17.07;41.40;98949.38;5032745;28;20036;-66
2021/03/27 10:52:06;;;;;;;6.05;3.20;;;;;;;17.19;41.96;98949.72;5033442;28;20375;-67
2021/03/27 10:54:34;;;;;;;7.57;4.55;;;;;;;16.93;41.96;98978.41;5032410;28;20496;-67
2021/03/27 10:57:02;;;;;;;7.43;3.28;;;;;;;16.87;42.58;98974.31;5027857;28;20036;-68
2021/03/27 10:59:56;;;;;;;4.00;3.65;;;;;;;17.03;41.79;98958.16;5030071;28;20025;-68
2021/03/27 11:03:00;;;;;;;4.40;3.83;;;;;;;16.91;42.55;98969.84;5031029;28;20398;-67
2021/03/27 11:05:58;;;;;;;5.78;3.97;;;;;;;16.83;42.80;98972.75;5007964;28;20398;-67
2021/03/27 11:08:49;;;;;;;7.10;4.10;;;;;;;16.75;42.90;98969.63;5001948;28;20398;-68
2021/03/27 11:11:46;;;;;;;5.75;4.63;;;;;;;17.01;43.10;98991.91;5004381;28;20042;-68
2021/03/27 11:14:45;;;;;;;5.30;4.70;;;;;;;16.61;43.01;98974.47;4999629;28;20051;-71
2021/03/27 11:17:41;;;;;;;7.28;5.30;;;;;;;16.57;43.66;98980.66;4998438;28;20983;-69
2021/03/27 11:20:07;;;;;;;47.10;43.72;;;;;;;16.19;44.62;99007.06;5002054;28;20429;-70
2021/03/27 11:22:55;;;;;;;509.53;458.87;;;;;;;16.16;44.78;99010.63;4999981;28;20030;-70
2021/03/27 11:25:49;;;;;;;697.60;637.90;;;;;;;15.89;45.45;99016.75;5004649;28;20153;-69
2021/03/27 11:28:14;;;;;;;712.07;651.87;;;;;;;15.89;45.69;98996.06;5003692;28;20463;-70
2021/03/27 11:30:55;;;;;;;688.73;629.17;;;;;;;15.84;45.65;98997.94;4997959;28;20038;-70
2021/03/27 11:33:45;;;;;;;673.30;614.07;;;;;;;15.97;45.63;99000.06;5000144;28;20049;-70
2021/03/27 11:36:14;;;;;;;674.57;614.77;;;;;;;15.99;45.07;98995.69;5002564;28;20502;-68
2021/03/27 11:38:44;;;;;;;678.17;618.57;;;;;;;16.14;45.06;99004.63;4999655;28;20069;-69
2021/03/27 11:41:25;;;;;;;666.23;607.23;;;;;;;15.91;45.80;98999.44;5000181;28;20407;-69
2021/03/27 11:44:16;;;;;;;705.00;644.93;;;;;;;15.93;44.69;98993.31;4997560;28;20057;-70
2021/03/27 11:47:15;;;;;;;704.57;644.33;;;;;;;16.09;44.60;99008.28;5030344;28;20042;-73
2021/03/27 11:50:06;;;;;;;731.40;670.13;;;;;;;16.15;44.48;98998.56;5032745;28;20021;-68
2021/03/27 11:52:47;;;;;;;667.73;609.10;;;;;;;16.07;44.20;99003.19;5029966;28;20128;-70
2021/03/27 11:55:18;;;;;;;672.37;613.40;;;;;;;16.09;43.33;99014.31;5027522;28;20029;-71
2021/03/27 11:58:08;;;;;;;701.43;641.57;;;;;;;16.03;43.13;99037.81;5027433;28;20596;-68
2021/03/27 12:03:43;;;;;;;699.63;639.90;;;;;;;16.49;43.47;99010.28;5030947;28;20032;-71
2021/03/27 12:06:21;;;;;;;691.33;631.77;;;;;;;16.22;43.36;99014.72;5048781;28;20033;-69
2021/03/27 12:09:25;;;;;;;711.03;650.70;;;;;;;16.30;43.06;99035.97;5027191;28;20025;-69
2021/03/27 12:12:32;;;;;;;713.93;653.73;;;;;;;16.13;43.33;99031.41;5030138;28;20398;-68
2021/03/27 12:15:06;;;;;;;721.07;660.17;;;;;;;16.26;42.84;99022.31;5030051;28;20056;-71
2021/03/27 12:18:03;;;;;;;15.37;12.47;;;;;;;16.13;43.38;99052.09;5031587;28;20029;-68
2021/03/27 12:20:35;;;;;;;;;;;;;;;16.16;42.97;99033.91;5032601;28;19929;-70
2021/03/27 12:23:13;;;;;;;448.38;336.48;;;;;;;16.21;42.94;99031.16;5035765;28;20421;-70
2021/03/27 12:26:00;;;;;;;6.88;4.32;;;;;;;16.14;43.46;99027.91;5034387;28;20033;-69
2021/03/27 12:28:40;;;;;;;5.05;4.18;;;;;;;16.07;43.00;99041.13;5035367;28;20120;-70
2021/03/27 12:31:19;;;;;;;6.35;4.00;;;;;;;16.05;43.87;99048.94;5031046;28;20278;-70
2021/03/27 12:34:13;;;;;;;7.65;4.28;;;;;;;16.02;44.01;99079.22;5037380;28;20028;-71
2021/03/27 12:37:04;;;;;;;6.10;4.20;;;;;;;15.89;43.64;99030.50;5054946;28;20373;-69
2021/03/27 12:39:41;;;;;;;13.85;9.82;;;;;;;15.67;44.70;99052.81;5031572;28;20033;-70
2021/03/27 12:42:34;;;;;;;7.28;3.75;;;;;;;15.62;44.50;99087.44;5037448;28;20100;-70
2021/03/27 12:45:06;;;;;;;5.43;3.72;;;;;;;15.63;45.12;99046.03;5033606;28;20042;-71
2021/03/27 12:47:37;;;;;;;75.75;69.55;;;;;;;15.89;44.16;99071.03;5039529;28;20304;-71